sensor_id;sensor_type;location;lat;lon;timestamp;temperature;humidity
15235;DHT22;7720;51.926;4.488;2023-05-06T04:37:38;14.10;99.90
15235;DHT22;7720;51.926;4.488;2023-05-06T04:42:47;14.30;99.90
15235;DHT22;7720;51.926;4.488;2023-05-06T04:47:55;14.30;99.90
15235;DHT22;7720;51.926;4.488;2023-05-06T04:53:00;14.40;99.90
15235;DHT22;7720;51.926;4.488;2023-05-06T04:58:03;14.40;99.90
15235;DHT22;7720;51.926;4.488;2023-05-06T05:03:07;14.50;99.90
15235;DHT22;7720;51.926;4.488;2023-05-06T05:08:12;14.40;99.90
15235;DHT22;7720;51.926;4.488;2023-05-06T05:13:15;14.50;99.90
15235;DHT22;7720;51.926;4.488;2023-05-06T05:18:19;14.70;99.90
15235;DHT22;7720;51.926;4.488;2023-05-06T05:38:46;14.60;99.90
15235;DHT22;7720;51.926;4.488;2023-05-06T05:43:49;15.30;99.90
15235;DHT22;7720;51.926;4.488;2023-05-06T05:53:59;15.60;99.90
15235;DHT22;7720;51.926;4.488;2023-05-06T06:04:06;15.80;99.90
15235;DHT22;7720;51.926;4.488;2023-05-06T06:09:11;15.80;99.90
15235;DHT22;7720;51.926;4.488;2023-05-06T06:14:15;15.90;99.90
15235;DHT22;7720;51.926;4.488;2023-05-06T06:19:21;16.20;99.90
15235;DHT22;7720;51.926;4.488;2023-05-06T06:34:34;16.20;99.90
15235;DHT22;7720;51.926;4.488;2023-05-06T06:44:42;16.60;99.90
15235;DHT22;7720;51.926;4.488;2023-05-06T06:49:45;17.20;99.90
15235;DHT22;7720;51.926;4.488;2023-05-06T06:54:50;17.40;99.90
15235;DHT22;7720;51.926;4.488;2023-05-06T06:59:53;17.70;99.90
15235;DHT22;7720;51.926;4.488;2023-05-06T07:10:01;17.80;99.90
15235;DHT22;7720;51.926;4.488;2023-05-06T07:15:05;18.20;99.90
15235;DHT22;7720;51.926;4.488;2023-05-06T07:25:15;18.30;99.90
15235;DHT22;7720;51.926;4.488;2023-05-06T07:30:19;18.50;99.90
15235;DHT22;7720;51.926;4.488;2023-05-06T07:35:24;18.40;99.90
15235;DHT22;7720;51.926;4.488;2023-05-06T07:40:28;18.40;99.90
15235;DHT22;7720;51.926;4.488;2023-05-06T07:45:32;18.50;99.90
15235;DHT22;7720;51.926;4.488;2023-05-06T07:50:35;18.60;99.90
15235;DHT22;7720;51.926;4.488;2023-05-06T07:55:40;18.50;99.90
15235;DHT22;7720;51.926;4.488;2023-05-06T08:00:43;18.40;99.90
15235;DHT22;7720;51.926;4.488;2023-05-06T08:05:46;18.40;99.90
15235;DHT22;7720;51.926;4.488;2023-05-06T08:10:52;18.70;99.90
15235;DHT22;7720;51.926;4.488;2023-05-06T08:15:56;18.80;99.90
15235;DHT22;7720;51.926;4.488;2023-05-06T08:20:59;18.90;99.90
15235;DHT22;7720;51.926;4.488;2023-05-06T08:31:42;19.00;99.90
15235;DHT22;7720;51.926;4.488;2023-05-06T08:36:45;19.20;99.90
15235;DHT22;7720;51.926;4.488;2023-05-06T08:41:51;19.00;99.90
15235;DHT22;7720;51.926;4.488;2023-05-06T08:46:56;19.00;99.90
15235;DHT22;7720;51.926;4.488;2023-05-06T08:52:03;19.00;99.90
15235;DHT22;7720;51.926;4.488;2023-05-06T08:57:10;19.20;99.90
15235;DHT22;7720;51.926;4.488;2023-05-06T09:02:15;19.20;99.90
15235;DHT22;7720;51.926;4.488;2023-05-06T09:07:19;19.30;99.90
15235;DHT22;7720;51.926;4.488;2023-05-06T09:12:23;19.20;99.90
15235;DHT22;7720;51.926;4.488;2023-05-06T09:17:30;19.40;99.90
15235;DHT22;7720;51.926;4.488;2023-05-06T09:22:36;19.50;99.90
15235;DHT22;7720;51.926;4.488;2023-05-06T09:27:40;19.50;99.90
15235;DHT22;7720;51.926;4.488;2023-05-06T09:32:44;19.40;99.90
15235;DHT22;7720;51.926;4.488;2023-05-06T09:37:50;19.50;99.90
15235;DHT22;7720;51.926;4.488;2023-05-06T09:42:54;19.70;99.90
15235;DHT22;7720;51.926;4.488;2023-05-06T09:47:59;19.70;99.90
15235;DHT22;7720;51.926;4.488;2023-05-06T09:53:03;19.60;99.90
15235;DHT22;7720;51.926;4.488;2023-05-06T09:58:08;19.50;99.90
15235;DHT22;7720;51.926;4.488;2023-05-06T10:03:14;19.50;99.90
15235;DHT22;7720;51.926;4.488;2023-05-06T10:08:18;19.60;99.90
15235;DHT22;7720;51.926;4.488;2023-05-06T10:13:22;19.50;99.90
15235;DHT22;7720;51.926;4.488;2023-05-06T10:18:28;19.50;99.90
15235;DHT22;7720;51.926;4.488;2023-05-06T10:23:38;19.50;99.90
15235;DHT22;7720;51.926;4.488;2023-05-06T10:28:46;19.70;99.90
15235;DHT22;7720;51.926;4.488;2023-05-06T10:33:57;19.90;99.90
15235;DHT22;7720;51.926;4.488;2023-05-06T10:39:03;19.90;99.90
15235;DHT22;7720;51.926;4.488;2023-05-06T10:44:08;20.10;99.90
15235;DHT22;7720;51.926;4.488;2023-05-06T10:49:17;20.20;99.90
15235;DHT22;7720;51.926;4.488;2023-05-06T10:54:25;20.20;99.90
15235;DHT22;7720;51.926;4.488;2023-05-06T10:59:28;20.00;99.90
15235;DHT22;7720;51.926;4.488;2023-05-06T11:04:33;20.20;99.90
15235;DHT22;7720;51.926;4.488;2023-05-06T11:09:54;20.20;99.90
15235;DHT22;7720;51.926;4.488;2023-05-06T11:15:18;20.20;99.90
15235;DHT22;7720;51.926;4.488;2023-05-06T11:20:24;20.50;99.90
15235;DHT22;7720;51.926;4.488;2023-05-06T11:25:41;20.40;99.90
15235;DHT22;7720;51.926;4.488;2023-05-06T11:30:54;20.30;99.90
15235;DHT22;7720;51.926;4.488;2023-05-06T11:35:59;20.30;99.90
15235;DHT22;7720;51.926;4.488;2023-05-06T11:41:02;20.50;99.90
15235;DHT22;7720;51.926;4.488;2023-05-06T11:46:06;20.40;99.90
15235;DHT22;7720;51.926;4.488;2023-05-06T11:51:11;20.40;99.90
15235;DHT22;7720;51.926;4.488;2023-05-06T11:56:14;20.40;99.90
15235;DHT22;7720;51.926;4.488;2023-05-06T12:01:17;20.50;99.90
15235;DHT22;7720;51.926;4.488;2023-05-06T12:06:32;20.60;99.90
15235;DHT22;7720;51.926;4.488;2023-05-06T12:11:36;20.50;99.90
15235;DHT22;7720;51.926;4.488;2023-05-06T12:16:40;20.40;99.90
15235;DHT22;7720;51.926;4.488;2023-05-06T12:21:45;20.40;99.90
15235;DHT22;7720;51.926;4.488;2023-05-06T12:26:48;20.40;99.90
15235;DHT22;7720;51.926;4.488;2023-05-06T12:32:06;20.50;99.90
15235;DHT22;7720;51.926;4.488;2023-05-06T12:37:23;20.50;99.90
15235;DHT22;7720;51.926;4.488;2023-05-06T12:42:26;20.40;99.90
15235;DHT22;7720;51.926;4.488;2023-05-06T12:47:30;20.40;99.90
15235;DHT22;7720;51.926;4.488;2023-05-06T12:52:42;20.50;99.90
15235;DHT22;7720;51.926;4.488;2023-05-06T12:57:45;20.70;99.90
15235;DHT22;7720;51.926;4.488;2023-05-06T13:02:50;20.70;99.90
15235;DHT22;7720;51.926;4.488;2023-05-06T13:07:54;20.60;99.90
15235;DHT22;7720;51.926;4.488;2023-05-06T13:12:58;20.70;99.90
15235;DHT22;7720;51.926;4.488;2023-05-06T13:18:01;20.60;99.90
15235;DHT22;7720;51.926;4.488;2023-05-06T13:23:06;20.60;99.90
15235;DHT22;7720;51.926;4.488;2023-05-06T13:28:09;20.70;99.90
15235;DHT22;7720;51.926;4.488;2023-05-06T13:33:12;20.80;99.90
15235;DHT22;7720;51.926;4.488;2023-05-06T13:38:17;20.90;99.90
15235;DHT22;7720;51.926;4.488;2023-05-06T13:43:22;20.80;99.90
15235;DHT22;7720;51.926;4.488;2023-05-06T13:48:26;20.70;99.90
15235;DHT22;7720;51.926;4.488;2023-05-06T13:53:32;20.70;99.90
15235;DHT22;7720;51.926;4.488;2023-05-06T13:58:35;20.80;99.90
15235;DHT22;7720;51.926;4.488;2023-05-06T14:03:39;21.00;99.90
15235;DHT22;7720;51.926;4.488;2023-05-06T14:08:44;20.80;99.90
15235;DHT22;7720;51.926;4.488;2023-05-06T14:13:47;21.10;99.90
15235;DHT22;7720;51.926;4.488;2023-05-06T14:18:51;21.00;99.90
15235;DHT22;7720;51.926;4.488;2023-05-06T14:23:56;21.00;99.90
15235;DHT22;7720;51.926;4.488;2023-05-06T14:29:00;20.90;99.90
15235;DHT22;7720;51.926;4.488;2023-05-06T14:34:03;20.90;99.90
15235;DHT22;7720;51.926;4.488;2023-05-06T14:39:08;21.20;99.90
15235;DHT22;7720;51.926;4.488;2023-05-06T14:44:11;21.10;99.90
15235;DHT22;7720;51.926;4.488;2023-05-06T14:49:14;20.90;99.90
15235;DHT22;7720;51.926;4.488;2023-05-06T14:54:19;20.90;99.90
15235;DHT22;7720;51.926;4.488;2023-05-06T14:59:22;20.80;99.90
15235;DHT22;7720;51.926;4.488;2023-05-06T15:04:25;20.90;99.90
15235;DHT22;7720;51.926;4.488;2023-05-06T15:09:30;20.80;99.90
15235;DHT22;7720;51.926;4.488;2023-05-06T15:14:34;20.90;99.90
15235;DHT22;7720;51.926;4.488;2023-05-06T15:19:38;20.90;99.90
15235;DHT22;7720;51.926;4.488;2023-05-06T15:24:43;20.80;99.90
15235;DHT22;7720;51.926;4.488;2023-05-06T15:29:47;20.80;99.90
15235;DHT22;7720;51.926;4.488;2023-05-06T15:34:50;20.70;99.90
15235;DHT22;7720;51.926;4.488;2023-05-06T15:39:54;20.60;99.90
15235;DHT22;7720;51.926;4.488;2023-05-06T15:44:58;20.80;99.90
15235;DHT22;7720;51.926;4.488;2023-05-06T15:50:02;20.80;99.90
15235;DHT22;7720;51.926;4.488;2023-05-06T15:55:27;20.70;99.90
15235;DHT22;7720;51.926;4.488;2023-05-06T16:00:30;20.70;99.90
15235;DHT22;7720;51.926;4.488;2023-05-06T16:05:33;20.60;99.90
15235;DHT22;7720;51.926;4.488;2023-05-06T16:10:38;20.60;99.90
15235;DHT22;7720;51.926;4.488;2023-05-06T16:15:42;20.50;99.90
15235;DHT22;7720;51.926;4.488;2023-05-06T16:20:46;20.40;99.90
15235;DHT22;7720;51.926;4.488;2023-05-06T16:25:50;20.30;99.90
15235;DHT22;7720;51.926;4.488;2023-05-06T16:30:53;19.80;99.90
15235;DHT22;7720;51.926;4.488;2023-05-06T16:35:57;19.70;99.90
15235;DHT22;7720;51.926;4.488;2023-05-06T16:41:01;19.70;99.90
15235;DHT22;7720;51.926;4.488;2023-05-06T16:46:05;19.70;99.90
15235;DHT22;7720;51.926;4.488;2023-05-06T16:51:08;19.50;99.90
15235;DHT22;7720;51.926;4.488;2023-05-06T16:56:14;19.50;99.90
15235;DHT22;7720;51.926;4.488;2023-05-06T17:01:17;19.30;99.90
15235;DHT22;7720;51.926;4.488;2023-05-06T17:06:21;19.10;99.90
15235;DHT22;7720;51.926;4.488;2023-05-06T17:11:27;19.10;99.90
15235;DHT22;7720;51.926;4.488;2023-05-06T17:16:30;19.00;99.90
15235;DHT22;7720;51.926;4.488;2023-05-06T17:21:33;19.20;99.90
15235;DHT22;7720;51.926;4.488;2023-05-06T17:26:38;19.10;99.90
15235;DHT22;7720;51.926;4.488;2023-05-06T17:31:42;19.20;99.90
15235;DHT22;7720;51.926;4.488;2023-05-06T17:36:46;19.20;99.90
15235;DHT22;7720;51.926;4.488;2023-05-06T17:41:50;19.20;99.90
15235;DHT22;7720;51.926;4.488;2023-05-06T17:46:54;19.20;99.90
15235;DHT22;7720;51.926;4.488;2023-05-06T17:51:58;19.10;99.90
15235;DHT22;7720;51.926;4.488;2023-05-06T17:57:04;19.00;99.90
15235;DHT22;7720;51.926;4.488;2023-05-06T18:02:07;19.00;99.90
15235;DHT22;7720;51.926;4.488;2023-05-06T18:07:14;18.60;99.90
15235;DHT22;7720;51.926;4.488;2023-05-06T18:12:19;18.50;99.90
15235;DHT22;7720;51.926;4.488;2023-05-06T18:17:23;18.50;99.90
15235;DHT22;7720;51.926;4.488;2023-05-06T18:22:26;18.60;99.90
15235;DHT22;7720;51.926;4.488;2023-05-06T18:27:31;18.70;99.90
15235;DHT22;7720;51.926;4.488;2023-05-06T18:32:35;18.40;99.90
15235;DHT22;7720;51.926;4.488;2023-05-06T18:37:39;18.50;99.90
15235;DHT22;7720;51.926;4.488;2023-05-06T18:42:45;18.50;99.90
15235;DHT22;7720;51.926;4.488;2023-05-06T18:47:48;18.20;99.90
15235;DHT22;7720;51.926;4.488;2023-05-06T18:52:53;18.40;99.90
15235;DHT22;7720;51.926;4.488;2023-05-06T18:57:58;18.20;99.90
15235;DHT22;7720;51.926;4.488;2023-05-06T19:03:06;18.30;99.90
15235;DHT22;7720;51.926;4.488;2023-05-06T19:08:10;18.10;99.90
15235;DHT22;7720;51.926;4.488;2023-05-06T19:13:16;17.70;99.90
15235;DHT22;7720;51.926;4.488;2023-05-06T19:18:19;17.80;99.90
15235;DHT22;7720;51.926;4.488;2023-05-06T19:23:22;17.60;99.90
15235;DHT22;7720;51.926;4.488;2023-05-06T19:28:27;17.40;99.90
15235;DHT22;7720;51.926;4.488;2023-05-06T19:33:31;17.40;99.90
15235;DHT22;7720;51.926;4.488;2023-05-06T19:38:34;17.30;99.90
15235;DHT22;7720;51.926;4.488;2023-05-06T19:43:42;17.40;99.90
15235;DHT22;7720;51.926;4.488;2023-05-06T19:48:46;17.30;99.90
15235;DHT22;7720;51.926;4.488;2023-05-06T19:53:49;17.40;99.90
15235;DHT22;7720;51.926;4.488;2023-05-06T19:58:54;17.20;99.90
15235;DHT22;7720;51.926;4.488;2023-05-06T20:03:57;17.30;99.90
15235;DHT22;7720;51.926;4.488;2023-05-06T20:09:01;17.50;99.90
15235;DHT22;7720;51.926;4.488;2023-05-06T20:14:06;17.20;99.90
15235;DHT22;7720;51.926;4.488;2023-05-06T20:19:10;16.90;99.90
15235;DHT22;7720;51.926;4.488;2023-05-06T20:24:13;16.90;99.90
15235;DHT22;7720;51.926;4.488;2023-05-06T20:29:18;16.90;99.90
15235;DHT22;7720;51.926;4.488;2023-05-06T20:34:22;17.00;99.90
15235;DHT22;7720;51.926;4.488;2023-05-06T20:39:25;16.90;99.90
15235;DHT22;7720;51.926;4.488;2023-05-06T20:44:30;17.30;99.90
15235;DHT22;7720;51.926;4.488;2023-05-06T20:49:34;17.10;99.90
15235;DHT22;7720;51.926;4.488;2023-05-06T20:54:37;17.20;99.90
15235;DHT22;7720;51.926;4.488;2023-05-06T20:59:42;17.00;99.90
15235;DHT22;7720;51.926;4.488;2023-05-06T21:04:46;16.70;99.90
15235;DHT22;7720;51.926;4.488;2023-05-06T21:09:50;16.60;99.90
15235;DHT22;7720;51.926;4.488;2023-05-06T21:14:55;16.70;99.90
15235;DHT22;7720;51.926;4.488;2023-05-06T21:20:00;16.70;99.90
15235;DHT22;7720;51.926;4.488;2023-05-06T21:25:08;17.00;99.90
15235;DHT22;7720;51.926;4.488;2023-05-06T21:30:16;17.00;99.90
15235;DHT22;7720;51.926;4.488;2023-05-06T21:35:20;16.90;99.90
15235;DHT22;7720;51.926;4.488;2023-05-06T21:40:25;17.00;99.90
15235;DHT22;7720;51.926;4.488;2023-05-06T21:45:30;17.00;99.90
15235;DHT22;7720;51.926;4.488;2023-05-06T21:50:35;16.90;99.90
15235;DHT22;7720;51.926;4.488;2023-05-06T21:55:38;16.70;99.90
15235;DHT22;7720;51.926;4.488;2023-05-06T22:00:43;16.80;99.90
15235;DHT22;7720;51.926;4.488;2023-05-06T22:05:47;16.80;99.90
15235;DHT22;7720;51.926;4.488;2023-05-06T22:10:51;16.80;99.90
15235;DHT22;7720;51.926;4.488;2023-05-06T22:15:55;16.80;99.90
15235;DHT22;7720;51.926;4.488;2023-05-06T22:20:59;16.80;99.90
15235;DHT22;7720;51.926;4.488;2023-05-06T22:26:02;16.70;99.90
15235;DHT22;7720;51.926;4.488;2023-05-06T22:31:07;16.60;99.90
15235;DHT22;7720;51.926;4.488;2023-05-06T22:36:11;16.60;99.90
15235;DHT22;7720;51.926;4.488;2023-05-06T22:41:15;16.60;99.90
15235;DHT22;7720;51.926;4.488;2023-05-06T22:46:20;16.60;99.90
15235;DHT22;7720;51.926;4.488;2023-05-06T22:51:24;16.60;99.90
15235;DHT22;7720;51.926;4.488;2023-05-06T22:56:27;16.50;99.90
15235;DHT22;7720;51.926;4.488;2023-05-06T23:01:32;16.50;99.90
15235;DHT22;7720;51.926;4.488;2023-05-06T23:06:35;16.40;99.90
15235;DHT22;7720;51.926;4.488;2023-05-06T23:11:39;16.20;99.90
15235;DHT22;7720;51.926;4.488;2023-05-06T23:16:44;16.40;99.90
15235;DHT22;7720;51.926;4.488;2023-05-06T23:21:47;16.30;99.90
15235;DHT22;7720;51.926;4.488;2023-05-06T23:26:50;16.20;99.90
15235;DHT22;7720;51.926;4.488;2023-05-06T23:31:55;16.20;99.90
15235;DHT22;7720;51.926;4.488;2023-05-06T23:36:58;16.30;99.90
15235;DHT22;7720;51.926;4.488;2023-05-06T23:42:02;16.20;99.90
15235;DHT22;7720;51.926;4.488;2023-05-06T23:47:07;16.20;99.90
15235;DHT22;7720;51.926;4.488;2023-05-06T23:52:11;16.20;99.90
15235;DHT22;7720;51.926;4.488;2023-05-06T23:57:14;16.20;99.90
